Time;durP1;ratioP1;P1;durP2;ratioP2;P2;SDS_P1;SDS_P2;PMS_P1;PMS_P2;Temp;Humidity;BMP_temperature;BMP_pressure;BME280_temperature;BME280_humidity;BME280_pressure;Samples;Min_cycle;Max_cycle;Signal;HPM_P1;HPM_P2
2022/05/02 03:25:36;;;;;;;7.95;1.88;;;19.20;83.00;;;;;;6329450;22;20665;-70
2022/05/02 03:28:03;;;;;;;6.25;1.83;;;19.20;82.30;;;;;;6335522;22;20097;-71
2022/05/02 03:30:30;;;;;;;7.68;2.00;;;19.10;81.90;;;;;;6309075;22;20030;-70
2022/05/02 03:32:58;;;;;;;4.30;1.77;;;19.20;81.10;;;;;;6309503;22;19998;-71
2022/05/02 03:35:28;;;;;;;4.05;1.85;;;19.20;80.50;;;;;;6336882;22;20002;-71
2022/05/02 03:37:54;;;;;;;;;;;19.30;80.40;;;;;;6310820;22;20044;-70
2022/05/02 03:40:21;;;;;;;9.40;2.00;;;19.30;80.60;;;;;;6335944;22;19913;-70
2022/05/02 03:42:49;;;;;;;7.72;2.17;;;19.30;80.20;;;;;;6308972;22;20036;-70
2022/05/02 03:45:16;;;;;;;7.25;1.88;;;19.30;79.80;;;;;;6309159;22;20002;-70
2022/05/02 03:47:43;;;;;;;8.65;2.40;;;19.30;80.30;;;;;;6336659;22;19999;-69
2022/05/02 03:50:10;;;;;;;12.48;3.00;;;19.30;80.40;;;;;;6308602;22;20383;-70
2022/05/02 03:52:37;;;;;;;10.55;1.85;;;19.30;81.10;;;;;;6308942;22;20064;-71
2022/05/02 03:55:05;;;;;;;8.93;2.20;;;19.30;79.70;;;;;;6309378;22;20005;-70
2022/05/02 03:57:32;;;;;;;14.68;2.35;;;19.30;80.50;;;;;;6337471;22;20386;-70
2022/05/02 03:59:59;;;;;;;8.80;2.58;;;19.30;81.50;;;;;;6309319;22;20564;-71
2022/05/02 04:02:26;;;;;;;8.00;2.60;;;19.30;82.40;;;;;;6307315;22;19995;-70
2022/05/02 04:04:53;;;;;;;6.70;2.58;;;19.30;83.00;;;;;;6332376;22;20014;-69
2022/05/02 04:07:21;;;;;;;21.35;3.10;;;19.30;82.80;;;;;;6332610;22;20002;-69
2022/05/02 04:09:48;;;;;;;10.55;2.47;;;19.30;83.30;;;;;;6333047;22;20013;-70
2022/05/02 04:12:15;;;;;;;13.75;3.03;;;19.30;83.40;;;;;;6332236;22;20300;-71
2022/05/02 04:14:42;;;;;;;14.23;2.40;;;19.30;83.60;;;;;;6330035;22;20010;-71
2022/05/02 04:17:10;;;;;;;11.63;2.55;;;19.30;82.90;;;;;;6332651;22;20013;-70
2022/05/02 04:19:37;;;;;;;8.77;2.13;;;19.30;83.20;;;;;;6332590;22;20082;-69
2022/05/02 04:22:05;;;;;;;22.15;2.55;;;19.30;81.90;;;;;;6332188;22;20431;-70
2022/05/02 04:24:32;;;;;;;14.55;2.17;;;19.30;81.30;;;;;;6332540;22;20446;-69
2022/05/02 04:26:59;;;;;;;7.07;2.25;;;19.30;81.30;;;;;;6332814;22;20027;-70
2022/05/02 04:29:26;;;;;;;8.70;2.33;;;19.30;80.20;;;;;;6332842;22;20003;-70
2022/05/02 04:31:53;;;;;;;10.40;1.63;;;19.30;79.90;;;;;;6305341;22;20022;-70
2022/05/02 04:34:21;;;;;;;16.48;2.60;;;19.30;79.80;;;;;;6332281;22;20647;-70
2022/05/02 04:36:48;;;;;;;31.95;3.53;;;19.30;79.40;;;;;;6332485;22;20329;-70
2022/05/02 04:39:15;;;;;;;11.13;1.73;;;19.30;78.80;;;;;;6332035;22;20437;-70
2022/05/02 04:41:42;;;;;;;7.47;1.63;;;19.30;77.00;;;;;;6305219;22;20425;-70
2022/05/02 04:44:09;;;;;;;4.45;1.52;;;19.40;76.70;;;;;;6305328;22;20007;-70
2022/05/02 04:46:36;;;;;;;5.40;1.58;;;19.40;76.60;;;;;;6305721;22;20006;-71
2022/05/02 04:49:04;;;;;;;7.85;1.50;;;19.50;76.20;;;;;;6305435;22;20010;-70
2022/05/02 04:51:31;;;;;;;8.57;1.70;;;19.60;76.60;;;;;;6305181;22;20432;-70
2022/05/02 04:53:58;;;;;;;10.68;2.10;;;19.70;76.60;;;;;;6304739;22;20021;-71
2022/05/02 04:56:25;;;;;;;8.63;1.75;;;19.70;77.30;;;;;;6305174;22;19999;-71
2022/05/02 04:58:52;;;;;;;12.52;2.00;;;19.70;77.40;;;;;;6332243;22;20010;-71
2022/05/02 05:01:20;;;;;;;18.52;3.00;;;19.70;76.70;;;;;;6305223;22;20438;-70
2022/05/02 05:03:47;;;;;;;6.15;1.70;;;19.70;77.50;;;;;;6304108;22;20002;-70
2022/05/02 05:06:14;;;;;;;4.85;1.80;;;19.70;77.30;;;;;;6304599;22;20023;-70
2022/05/02 05:08:41;;;;;;;16.27;2.25;;;19.70;77.80;;;;;;6332144;22;20009;-70
2022/05/02 05:11:36;;;;;;;10.73;2.10;;;19.70;77.80;;;;;;6331874;22;20066;-72
2022/05/02 05:17:15;;;;;;;13.57;2.30;;;19.70;78.00;;;;;;6332575;22;20487;-73
2022/05/02 05:19:55;;;;;;;8.20;2.00;;;19.70;77.30;;;;;;6333783;22;20011;-73
2022/05/02 05:22:27;;;;;;;7.00;2.03;;;19.70;77.50;;;;;;6333642;22;20037;-70
2022/05/02 05:25:31;;;;;;;8.25;2.20;;;19.70;78.30;;;;;;6333959;22;20122;-73
2022/05/02 05:28:02;;;;;;;7.38;2.05;;;19.70;78.60;;;;;;6334587;22;20041;-72
2022/05/02 05:30:29;;;;;;;8.00;1.90;;;19.70;78.30;;;;;;6333789;22;20025;-72
2022/05/02 05:33:12;;;;;;;7.57;2.00;;;19.60;78.80;;;;;;6306753;22;20006;-72
2022/05/02 05:35:54;;;;;;;10.98;2.30;;;19.60;79.40;;;;;;6308632;22;19995;-72
2022/05/02 05:38:39;;;;;;;14.02;2.00;;;19.60;79.90;;;;;;6333288;22;20038;-71
2022/05/02 05:41:12;;;;;;;6.10;1.55;;;19.60;79.70;;;;;;6333694;22;20485;-69
2022/05/02 05:43:52;;;;;;;7.60;1.98;;;19.50;79.80;;;;;;6333583;22;20335;-70
2022/05/02 05:46:26;;;;;;;8.25;1.92;;;19.50;79.40;;;;;;6333986;22;20059;-69
2022/05/02 05:49:23;;;;;;;6.70;1.58;;;19.50;79.90;;;;;;6333860;22;20101;-69
2022/05/02 05:52:14;;;;;;;7.38;1.90;;;19.50;79.60;;;;;;6333746;22;20049;-69
2022/05/02 05:54:43;;;;;;;;;;;19.50;79.40;;;;;;6311260;22;20432;-70
2022/05/02 05:57:40;;;;;;;4.40;1.40;;;19.50;79.20;;;;;;6334013;22;19944;-69
2022/05/02 06:00:15;;;;;;;3.75;1.30;;;19.50;79.40;;;;;;6333136;22;20938;-69
2022/05/02 06:02:45;;;;;;;5.15;1.60;;;19.50;79.20;;;;;;6332879;22;20007;-71
2022/05/02 06:05:15;;;;;;;9.43;2.58;;;19.50;79.40;;;;;;6334420;22;20007;-72
2022/05/02 06:07:44;;;;;;;7.18;1.70;;;19.50;79.80;;;;;;6307492;22;20433;-72
2022/05/02 06:10:11;;;;;;;6.03;1.60;;;19.50;79.90;;;;;;6306427;22;20007;-71
2022/05/02 06:12:39;;;;;;;8.13;1.55;;;19.50;80.10;;;;;;6306753;22;20481;-71
2022/05/02 06:20:40;;;;;;;4.43;1.45;;;19.40;80.70;;;;;;6333664;22;20025;-70
2022/05/02 06:23:13;;;;;;;7.57;2.00;;;19.40;80.80;;;;;;6333805;22;20453;-70
2022/05/02 06:25:41;;;;;;;8.30;2.10;;;19.40;81.00;;;;;;6305426;22;20033;-71
2022/05/02 06:28:09;;;;;;;5.65;1.65;;;19.40;81.20;;;;;;6333908;22;19999;-70
2022/05/02 06:30:37;;;;;;;5.85;2.10;;;19.40;81.20;;;;;;6333329;22;20343;-71
2022/05/02 06:33:13;;;;;;;10.93;1.88;;;19.40;81.30;;;;;;6333594;22;20064;-70
2022/05/02 06:36:16;;;;;;;5.25;1.83;;;19.40;81.10;;;;;;6281248;22;20006;-71
2022/05/02 06:39:03;;;;;;;6.93;1.80;;;19.30;80.40;;;;;;6327555;22;20075;-71
2022/05/02 06:41:51;;;;;;;5.13;1.42;;;19.30;79.80;;;;;;6333666;22;20012;-72
2022/05/02 06:44:42;;;;;;;4.95;1.60;;;19.30;79.90;;;;;;6333377;22;20441;-66
2022/05/02 06:47:36;;;;;;;4.90;1.42;;;19.30;79.60;;;;;;6333736;22;19999;-72
2022/05/02 06:50:05;;;;;;;3.83;1.50;;;19.30;79.30;;;;;;6332950;22;20032;-70
2022/05/02 06:52:48;;;;;;;5.38;1.60;;;19.30;79.30;;;;;;6306067;22;20025;-71
2022/05/02 06:55:18;;;;;;;7.20;1.85;;;19.30;79.40;;;;;;6280731;22;20003;-71
2022/05/02 06:58:03;;;;;;;4.28;1.42;;;19.30;79.20;;;;;;6305415;22;20065;-70
2022/05/02 07:00:37;;;;;;;4.65;1.50;;;19.20;79.10;;;;;;6333407;22;20011;-70
2022/05/02 07:03:26;;;;;;;6.00;1.70;;;19.20;79.00;;;;;;6306910;22;20159;-71
2022/05/02 07:06:22;;;;;;;7.10;1.55;;;19.20;79.20;;;;;;6333861;22;20017;-71
2022/05/02 07:08:57;;;;;;;4.53;1.55;;;19.20;79.20;;;;;;6279239;22;20433;-71
2022/05/02 07:11:25;;;;;;;5.45;1.75;;;19.20;79.20;;;;;;6280925;22;19994;-71
2022/05/02 07:14:10;;;;;;;7.68;1.70;;;19.10;79.30;;;;;;6277396;22;20003;-71
2022/05/02 07:16:41;;;;;;;5.68;1.67;;;19.20;79.30;;;;;;6281736;22;20009;-71
2022/05/02 07:19:30;;;;;;;6.68;1.60;;;19.20;79.40;;;;;;6280336;22;20366;-71
2022/05/02 07:22:04;;;;;;;6.35;1.58;;;19.10;79.50;;;;;;6306975;22;20026;-71
2022/05/02 07:25:09;;;;;;;5.38;1.70;;;19.10;79.60;;;;;;6280321;22;20056;-71
2022/05/02 07:28:10;;;;;;;5.57;1.60;;;19.10;79.60;;;;;;6332724;22;20022;-72
2022/05/02 07:30:36;;;;;;;;;;;19.10;79.80;;;;;;6265503;22;20049;-71
2022/05/02 07:33:04;;;;;;;6.13;1.60;;;19.10;79.90;;;;;;6333464;22;19902;-70
2022/05/02 07:35:31;;;;;;;11.07;2.30;;;19.00;80.10;;;;;;6333856;22;20461;-71
2022/05/02 07:37:59;;;;;;;7.95;1.95;;;19.00;80.10;;;;;;6332840;22;20022;-70
2022/05/02 07:40:26;;;;;;;9.93;1.88;;;19.00;80.40;;;;;;6305643;22;20289;-72
2022/05/02 07:42:53;;;;;;;6.72;2.00;;;19.00;80.50;;;;;;6305195;22;20017;-72
2022/05/02 07:45:28;;;;;;;6.50;2.03;;;19.00;80.70;;;;;;6333373;22;20056;-72
2022/05/02 07:47:57;;;;;;;4.93;1.75;;;18.90;80.90;;;;;;6304782;22;20122;-72
2022/05/02 07:50:25;;;;;;;5.82;1.83;;;19.00;81.20;;;;;;6280291;22;20082;-72
2022/05/02 07:52:52;;;;;;;7.68;2.30;;;19.00;81.40;;;;;;6279794;22;20104;-71
2022/05/02 07:55:22;;;;;;;5.80;1.70;;;18.90;81.60;;;;;;6304953;22;20003;-70
2022/05/02 07:57:49;;;;;;;4.77;1.43;;;19.00;81.70;;;;;;6332811;22;20066;-70
2022/05/02 08:00:17;;;;;;;5.43;1.60;;;19.00;81.90;;;;;;6332896;22;20039;-71
2022/05/02 08:02:44;;;;;;;4.65;1.80;;;18.90;81.90;;;;;;6305314;22;20010;-72
2022/05/02 08:05:11;;;;;;;6.05;1.73;;;18.90;82.10;;;;;;6330747;22;20019;-72
2022/05/02 08:07:51;;;;;;;12.55;1.90;;;19.00;82.30;;;;;;6332462;22;20427;-72
2022/05/02 08:10:45;;;;;;;22.10;2.15;;;18.90;82.40;;;;;;6332527;22;20307;-72
2022/05/02 08:13:38;;;;;;;31.35;3.40;;;18.90;82.60;;;;;;6330352;22;20104;-72
2022/05/02 08:16:26;;;;;;;42.38;3.78;;;18.90;82.80;;;;;;6304772;22;20018;-72
2022/05/02 08:19:29;;;;;;;16.42;2.50;;;18.90;82.90;;;;;;6332066;22;20014;-72
2022/05/02 08:28:07;;;;;;;19.30;2.63;;;18.90;83.50;;;;;;6287485;22;20527;-72
2022/05/02 08:30:48;;;;;;;29.00;3.60;;;18.90;83.70;;;;;;6332331;22;20341;-72
2022/05/02 08:33:19;;;;;;;19.05;5.18;;;18.90;83.70;;;;;;6304704;22;20017;-72
2022/05/02 08:36:06;;;;;;;30.35;6.65;;;18.80;83.80;;;;;;6279547;22;20002;-72
2022/05/02 08:38:51;;;;;;;37.95;8.95;;;18.90;83.90;;;;;;6330324;22;20559;-71
2022/05/02 08:41:41;;;;;;;15.65;4.47;;;18.80;84.00;;;;;;6330969;22;20006;-72
2022/05/02 08:44:45;;;;;;;9.48;2.67;;;18.80;84.20;;;;;;6311296;22;20265;-72
2022/05/02 08:47:38;;;;;;;53.95;21.00;;;18.80;84.30;;;;;;6331737;22;20003;-72
2022/05/02 08:51:06;;;;;;;30.23;11.05;;;18.80;84.40;;;;;;6266536;22;20018;-72
2022/05/02 08:54:09;;;;;;;20.13;7.82;;;18.80;84.60;;;;;;6249076;22;20044;-72
2022/05/02 08:56:50;;;;;;;12.25;4.80;;;18.80;84.70;;;;;;6268537;22;20016;-72
2022/05/02 08:59:36;;;;;;;12.15;3.38;;;18.80;84.80;;;;;;6321517;22;20516;-72
2022/05/02 09:02:47;;;;;;;10.20;2.97;;;18.80;84.90;;;;;;6305266;22;20014;-72
2022/05/02 09:05:29;;;;;;;10.15;3.65;;;18.80;85.00;;;;;;6301568;22;20085;-72
2022/05/02 09:08:10;;;;;;;11.68;4.40;;;18.80;85.10;;;;;;6308098;22;20002;-73
2022/05/02 09:10:58;;;;;;;14.90;7.13;;;18.80;85.20;;;;;;6333366;22;19999;-71
2022/05/02 09:13:56;;;;;;;16.25;6.80;;;18.80;85.40;;;;;;6331551;22;19999;-70
2022/05/02 09:16:46;;;;;;;14.40;5.35;;;18.80;85.30;;;;;;6333051;22;20025;-71
2022/05/02 09:19:16;;;;;;;;;;;18.80;85.40;;;;;;6306534;22;20409;-70
2022/05/02 09:21:49;;;;;;;6.32;3.08;;;18.80;85.40;;;;;;6305766;22;19948;-72
2022/05/02 09:24:37;;;;;;;9.23;3.42;;;18.80;85.50;;;;;;6334283;22;20007;-71
2022/05/02 09:27:35;;;;;;;10.18;2.90;;;18.80;85.70;;;;;;6305914;22;20026;-70
2022/05/02 09:30:25;;;;;;;8.48;2.55;;;18.80;85.90;;;;;;6285684;22;20010;-70
2022/05/02 09:33:16;;;;;;;8.10;2.38;;;18.70;86.00;;;;;;6317488;22;20379;-72
2022/05/02 09:35:54;;;;;;;6.70;2.20;;;18.70;86.10;;;;;;6307054;22;20437;-70
2022/05/02 09:38:29;;;;;;;7.85;2.40;;;18.70;86.10;;;;;;6306556;22;20002;-72
2022/05/02 09:41:41;;;;;;;8.65;2.30;;;18.70;86.30;;;;;;6281988;22;20338;-69
2022/05/02 09:50:27;;;;;;;8.10;2.58;;;18.60;86.80;;;;;;6333809;22;20325;-73
2022/05/02 09:53:18;;;;;;;10.30;2.90;;;18.50;87.00;;;;;;6305906;22;20080;-72
2022/05/02 09:58:51;;;;;;;11.05;3.60;;;18.50;87.20;;;;;;6332056;22;20130;-74
2022/05/02 10:01:23;;;;;;;9.13;4.03;;;18.50;87.20;;;;;;6329711;22;20003;-75
2022/05/02 10:04:18;;;;;;;12.40;4.03;;;18.50;87.10;;;;;;6333497;22;20604;-76
2022/05/02 10:06:55;;;;;;;8.45;2.88;;;18.50;87.30;;;;;;6333676;22;20001;-76
2022/05/02 10:09:43;;;;;;;9.50;2.97;;;18.40;87.40;;;;;;6306228;22;20002;-74
2022/05/02 10:12:28;;;;;;;5.47;2.50;;;18.40;87.40;;;;;;6333707;22;20025;-76
2022/05/02 10:15:05;;;;;;;7.22;2.53;;;18.40;87.40;;;;;;6331140;22;20038;-73
2022/05/02 10:17:53;;;;;;;9.20;2.20;;;18.40;87.50;;;;;;6331616;22;20002;-76
2022/05/02 10:20:22;;;;;;;5.88;2.72;;;18.40;87.40;;;;;;6331324;22;20335;-73
2022/05/02 10:23:07;;;;;;;8.55;2.25;;;18.40;87.30;;;;;;6254218;22;20030;-76
2022/05/02 10:25:56;;;;;;;5.50;2.08;;;18.40;87.30;;;;;;6330169;22;20102;-72
2022/05/02 10:29:01;;;;;;;7.53;2.17;;;18.40;87.20;;;;;;6305215;22;20014;-75
2022/05/02 10:31:29;;;;;;;8.52;1.90;;;18.40;87.10;;;;;;6269043;22;20412;-74
2022/05/02 10:33:56;;;;;;;5.32;2.28;;;18.40;87.10;;;;;;6279822;22;20033;-74
2022/05/02 10:36:36;;;;;;;9.32;2.22;;;18.40;86.90;;;;;;6279223;22;20034;-74
2022/05/02 10:39:28;;;;;;;3.85;1.80;;;18.40;86.90;;;;;;6281750;22;20022;-74
2022/05/02 10:41:58;;;;;;;3.88;2.00;;;18.40;86.90;;;;;;6283539;22;20026;-75
2022/05/02 10:44:34;;;;;;;3.45;1.42;;;18.50;86.70;;;;;;6332249;22;20010;-75
2022/05/02 10:47:03;;;;;;;5.32;2.35;;;18.50;86.80;;;;;;6303377;22;20338;-74
2022/05/02 10:50:03;;;;;;;9.27;2.40;;;18.50;86.70;;;;;;6304754;22;20006;-74
2022/05/02 10:52:39;;;;;;;9.52;2.20;;;18.50;87.00;;;;;;6322415;22;20731;-73
2022/05/02 10:55:06;;;;;;;6.53;1.80;;;18.40;86.80;;;;;;6307729;22;20007;-73
2022/05/02 10:57:40;;;;;;;5.82;1.90;;;18.50;86.80;;;;;;6303373;22;20402;-71
2022/05/02 11:00:12;;;;;;;7.38;2.10;;;18.50;86.70;;;;;;6308217;22;20014;-72
2022/05/02 11:02:51;;;;;;;4.28;1.67;;;18.40;87.00;;;;;;6309089;22;20006;-71
2022/05/02 11:05:32;;;;;;;8.10;2.00;;;18.40;86.90;;;;;;6335586;22;20073;-71
2022/05/02 11:08:11;;;;;;;8.27;2.25;;;18.30;87.00;;;;;;6259005;22;20003;-70
2022/05/02 11:11:06;;;;;;;6.68;2.05;;;18.30;87.10;;;;;;6335910;22;20045;-72
2022/05/02 11:13:34;;;;;;;8.73;2.00;;;18.30;87.30;;;;;;6308016;22;20128;-72
2022/05/02 11:16:27;;;;;;;4.88;1.92;;;18.30;87.20;;;;;;6335695;22;20318;-73
2022/05/02 11:22:13;;;;;;;8.00;2.28;;;18.30;87.50;;;;;;6334774;22;20635;-73
2022/05/02 11:24:43;;;;;;;8.67;2.40;;;18.20;87.50;;;;;;6335549;22;20014;-71
2022/05/02 11:27:47;;;;;;;5.97;2.17;;;18.20;87.50;;;;;;6335550;22;20047;-72
2022/05/02 11:30:15;;;;;;;6.18;2.13;;;18.20;87.60;;;;;;6307399;22;20003;-72
2022/05/02 11:33:04;;;;;;;5.45;1.80;;;18.20;87.70;;;;;;6279823;22;20011;-72
2022/05/02 11:35:31;;;;;;;8.10;2.22;;;18.20;87.80;;;;;;6307660;22;20034;-73
2022/05/02 12:01:27;;;;;;;20.77;8.77;;;18.10;88.50;;;;;;6333768;22;20029;-73
2022/05/02 12:04:01;;;;;;;13.15;4.90;;;18.00;88.50;;;;;;6284419;22;20007;-71
2022/05/02 12:06:52;;;;;;;11.60;4.88;;;18.00;88.50;;;;;;6308656;22;20003;-71
2022/05/02 12:09:25;;;;;;;7.25;2.67;;;18.00;88.60;;;;;;6308226;22;20010;-73
2022/05/02 12:11:56;;;;;;;7.15;2.10;;;18.00;88.60;;;;;;6335432;22;20007;-72
2022/05/02 12:14:24;;;;;;;6.75;2.60;;;18.00;88.50;;;;;;6335052;22;20041;-72
2022/05/02 12:17:11;;;;;;;7.22;2.30;;;18.00;88.80;;;;;;6307672;22;20002;-72
2022/05/02 12:19:39;;;;;;;7.75;1.92;;;18.00;88.80;;;;;;6332713;22;20019;-74
2022/05/02 12:22:16;;;;;;;5.93;2.00;;;18.00;88.70;;;;;;6280807;22;20007;-72
2022/05/02 12:24:45;;;;;;;11.77;1.98;;;17.90;88.80;;;;;;6307587;22;20007;-73
2022/05/02 12:27:14;;;;;;;6.57;1.77;;;17.90;88.80;;;;;;6308769;22;20082;-72
2022/05/02 12:29:42;;;;;;;7.55;1.95;;;17.90;88.80;;;;;;6283718;22;20394;-72
2022/05/02 12:32:10;;;;;;;7.57;1.90;;;17.90;89.00;;;;;;6309218;22;20007;-72
2022/05/02 12:34:39;;;;;;;6.10;1.85;;;17.90;88.90;;;;;;6335522;22;20097;-72
2022/05/02 12:37:27;;;;;;;5.60;1.85;;;17.90;89.00;;;;;;6337296;22;20014;-73
2022/05/02 12:40:23;;;;;;;8.25;1.80;;;17.90;89.10;;;;;;6314097;22;20011;-73
2022/05/02 12:42:55;;;;;;;7.80;1.60;;;17.80;89.10;;;;;;6286222;22;20006;-73
2022/05/02 12:45:23;;;;;;;4.30;1.83;;;17.80;89.00;;;;;;6309525;22;20325;-73
2022/05/02 12:47:57;;;;;;;5.00;1.50;;;17.80;89.00;;;;;;6310664;22;20003;-73
2022/05/02 12:50:27;;;;;;;4.97;1.73;;;17.80;89.00;;;;;;6338459;22;19999;-73
2022/05/02 12:52:57;;;;;;;7.40;2.05;;;17.80;89.10;;;;;;6338949;22;20090;-73
2022/05/02 12:55:41;;;;;;;15.32;2.40;;;17.80;89.10;;;;;;6338419;22;20026;-73
2022/05/02 13:04:30;;;;;;;5.47;1.92;;;17.80;89.50;;;;;;6336026;22;20506;-73
2022/05/02 13:07:00;;;;;;;7.88;1.80;;;17.70;89.60;;;;;;6305517;22;20030;-73
2022/05/02 13:09:35;;;;;;;10.52;2.75;;;17.70;89.70;;;;;;6306561;22;20470;-73
2022/05/02 13:12:10;;;;;;;3.53;1.60;;;17.70;89.70;;;;;;6280406;22;20023;-73
2022/05/02 13:14:37;;;;;;;5.75;1.85;;;17.70;89.80;;;;;;6306758;22;19996;-73
2022/05/02 13:17:08;;;;;;;6.55;2.00;;;17.70;89.90;;;;;;6278666;22;20006;-73
2022/05/02 13:19:37;;;;;;;10.23;2.22;;;17.60;89.90;;;;;;6254380;22;20338;-73
2022/05/02 13:22:05;;;;;;;5.35;1.67;;;17.60;90.00;;;;;;6306464;22;19996;-73
2022/05/02 13:24:32;;;;;;;9.65;2.00;;;17.70;90.00;;;;;;6277547;22;20065;-73
2022/05/02 13:27:11;;;;;;;10.10;2.05;;;17.60;90.00;;;;;;6305444;22;19995;-73
2022/05/02 13:29:56;;;;;;;8.70;1.95;;;17.60;90.10;;;;;;6255361;22;20092;-74
2022/05/02 13:32:34;;;;;;;5.45;1.90;;;17.60;90.00;;;;;;6278386;22;20390;-73
2022/05/02 13:35:19;;;;;;;7.38;2.10;;;17.60;90.00;;;;;;6253979;22;20010;-73
2022/05/02 13:38:24;;;;;;;5.20;2.15;;;17.60;90.00;;;;;;6305859;22;20003;-73
2022/05/02 13:41:10;;;;;;;7.20;1.77;;;17.60;89.90;;;;;;6156341;23;20032;-73
2022/05/02 13:44:06;;;;;;;4.90;1.70;;;17.50;90.00;;;;;;6299281;22;20008;-72
2022/05/02 13:46:53;;;;;;;13.90;2.15;;;17.50;90.10;;;;;;6257536;22;20007;-73
2022/05/02 13:49:42;;;;;;;5.97;2.08;;;17.50;90.00;;;;;;6306286;22;20007;-74
2022/05/02 13:52:30;;;;;;;5.70;1.92;;;17.50;90.10;;;;;;6306489;22;20010;-74
2022/05/02 13:54:57;;;;;;;10.13;2.00;;;17.40;90.20;;;;;;6305009;22;20246;-72
2022/05/02 13:57:32;;;;;;;7.05;1.85;;;17.40;90.20;;;;;;6253513;22;20102;-72
2022/05/02 14:03:30;;;;;;;8.75;2.63;;;17.30;90.30;;;;;;6304558;22;20010;-74
2022/05/02 14:05:59;;;;;;;8.02;2.50;;;17.30;90.30;;;;;;6301313;22;20041;-71
2022/05/02 14:08:32;;;;;;;7.97;2.38;;;17.30;90.10;;;;;;6284432;22;20003;-71
2022/05/02 14:11:00;;;;;;;8.55;2.50;;;17.30;90.10;;;;;;6309834;22;20003;-72
2022/05/02 14:13:28;;;;;;;6.72;2.28;;;17.30;90.00;;;;;;6337953;22;20309;-71
2022/05/02 14:16:04;;;;;;;13.50;2.45;;;17.20;90.10;;;;;;6308578;22;20002;-72
2022/05/02 14:18:59;;;;;;;13.20;3.00;;;17.30;90.10;;;;;;6312052;22;20014;-72
2022/05/02 14:21:30;;;;;;;8.73;2.42;;;17.20;90.00;;;;;;6312037;22;20445;-72
2022/05/02 14:23:57;;;;;;;;;;;17.20;90.10;;;;;;6286276;22;20364;-72
2022/05/02 14:26:28;;;;;;;4.65;2.15;;;17.20;90.20;;;;;;6336891;22;19962;-72
2022/05/02 14:28:56;;;;;;;7.97;2.38;;;17.20;90.20;;;;;;6308573;22;20013;-73
2022/05/02 14:31:44;;;;;;;6.15;2.58;;;17.10;90.00;;;;;;6336635;22;19995;-73
2022/05/02 14:34:14;;;;;;;6.93;2.22;;;17.10;90.10;;;;;;6314115;22;20003;-73
2022/05/02 14:36:44;;;;;;;10.63;2.63;;;17.10;90.20;;;;;;6309918;22;20409;-73
2022/05/02 14:39:14;;;;;;;9.07;2.53;;;17.10;90.20;;;;;;6310487;22;20049;-73
2022/05/02 14:41:42;;;;;;;6.07;2.40;;;17.00;90.30;;;;;;6308557;22;20010;-73
2022/05/02 14:44:12;;;;;;;11.38;2.47;;;17.00;90.40;;;;;;6336627;22;20003;-73
2022/05/02 14:46:42;;;;;;;11.73;2.38;;;17.00;90.40;;;;;;6336451;22;20093;-73
2022/05/02 14:49:11;;;;;;;8.73;2.95;;;17.00;90.30;;;;;;6336038;22;20006;-73
2022/05/02 14:51:42;;;;;;;10.35;2.70;;;17.00;90.40;;;;;;6309508;22;20006;-73
2022/05/02 14:54:11;;;;;;;7.47;2.50;;;17.00;90.50;;;;;;6336048;22;20390;-72
2022/05/02 14:56:42;;;;;;;6.63;3.15;;;17.00;90.50;;;;;;6258518;22;20010;-73
2022/05/02 14:59:16;;;;;;;12.45;3.88;;;17.00;90.40;;;;;;6335946;22;20049;-73
2022/05/02 15:01:44;;;;;;;10.00;2.67;;;17.00;90.40;;;;;;6308776;22;20426;-73
2022/05/02 15:04:15;;;;;;;8.75;2.42;;;16.90;90.50;;;;;;6308367;22;20414;-73
2022/05/02 15:06:42;;;;;;;9.77;2.50;;;16.90;90.50;;;;;;6336804;22;20094;-73
2022/05/02 15:10:12;;;;;;;6.40;2.67;;;16.80;90.60;;;;;;6283930;22;20035;-74
2022/05/02 15:12:17;;;;;;;9.35;2.55;;;16.90;90.60;;;;;;6312451;22;20007;-74
2022/05/02 15:14:47;;;;;;;6.60;2.70;;;16.90;90.60;;;;;;6283785;22;20006;-73
2022/05/02 15:17:26;;;;;;;8.68;2.38;;;16.80;90.50;;;;;;6336000;22;20049;-73
2022/05/02 15:20:22;;;;;;;6.93;2.78;;;16.80;90.60;;;;;;6336570;22;20086;-73
2022/05/02 15:23:02;;;;;;;8.88;3.17;;;16.80;90.70;;;;;;6336014;22;20015;-73
2022/05/02 15:25:30;;;;;;;9.70;2.60;;;16.80;90.80;;;;;;6285851;22;20002;-73
2022/05/02 15:36:43;;;;;;;8.63;2.75;;;16.70;90.80;;;;;;6335911;22;20021;-73
2022/05/02 15:39:26;;;;;;;8.55;2.50;;;16.70;90.80;;;;;;6287441;22;20003;-74
2022/05/02 15:41:57;;;;;;;7.32;2.28;;;16.70;90.90;;;;;;6335536;22;20394;-73
2022/05/02 15:44:24;;;;;;;6.53;2.63;;;16.70;91.00;;;;;;6309388;22;20005;-73
2022/05/02 15:47:00;;;;;;;10.63;2.40;;;16.70;91.10;;;;;;6336450;22;20325;-73
2022/05/02 15:49:29;;;;;;;7.50;2.35;;;16.70;91.10;;;;;;6310739;22;19995;-74
2022/05/02 15:52:06;;;;;;;6.07;2.60;;;16.60;91.10;;;;;;6335415;22;20018;-73
2022/05/02 15:54:38;;;;;;;5.93;2.38;;;16.70;91.10;;;;;;6335485;22;20045;-74
2022/05/02 15:57:17;;;;;;;10.43;2.83;;;16.70;91.10;;;;;;6308362;22;20007;-73
2022/05/02 15:59:49;;;;;;;11.13;2.60;;;16.70;91.20;;;;;;6336037;22;20091;-73
2022/05/02 16:02:21;;;;;;;7.47;2.40;;;16.60;91.30;;;;;;6309096;22;19999;-74
2022/05/02 16:04:55;;;;;;;10.20;2.70;;;16.60;91.30;;;;;;6308427;22;20015;-73
2022/05/02 16:10:37;;;;;;;10.80;2.47;;;16.70;91.30;;;;;;6315172;22;20562;-73
2022/05/02 16:13:05;;;;;;;8.18;2.70;;;16.70;91.40;;;;;;6308834;22;20445;-73
2022/05/02 16:15:32;;;;;;;9.70;2.70;;;16.60;91.30;;;;;;6308433;22;20449;-73
2022/05/02 16:18:03;;;;;;;10.93;2.67;;;16.60;91.40;;;;;;6307951;22;19999;-73
2022/05/02 16:20:34;;;;;;;12.35;2.85;;;16.50;91.30;;;;;;6307136;22;20011;-73
2022/05/02 16:23:02;;;;;;;11.00;2.65;;;16.50;91.40;;;;;;6307660;22;20029;-73
2022/05/02 16:25:32;;;;;;;12.57;2.72;;;16.50;91.30;;;;;;6283446;22;20010;-73
2022/05/02 16:28:00;;;;;;;5.70;2.58;;;16.50;91.40;;;;;;6336299;22;19999;-73
2022/05/02 16:30:27;;;;;;;11.77;2.90;;;16.50;91.50;;;;;;6336351;22;20452;-73
2022/05/02 16:32:55;;;;;;;14.40;2.92;;;16.40;91.50;;;;;;6308959;22;20147;-73
2022/05/02 16:35:23;;;;;;;4.90;2.30;;;16.40;91.60;;;;;;6308146;22;19999;-74
2022/05/02 16:37:51;;;;;;;10.90;2.63;;;16.40;91.50;;;;;;6307618;22;20184;-74
2022/05/02 16:40:29;;;;;;;12.13;3.13;;;16.40;91.60;;;;;;6309223;22;20017;-73
2022/05/02 16:43:06;;;;;;;6.82;2.40;;;16.40;91.60;;;;;;6310591;22;20422;-73
2022/05/02 16:45:36;;;;;;;7.20;2.55;;;16.50;91.70;;;;;;6307920;22;20041;-74
2022/05/02 16:48:08;;;;;;;9.57;2.40;;;16.40;91.70;;;;;;6308488;22;20037;-74
2022/05/02 16:50:40;;;;;;;15.43;2.95;;;16.40;91.80;;;;;;6308359;22;20002;-73
2022/05/02 16:53:08;;;;;;;9.73;3.00;;;16.40;91.80;;;;;;6335927;22;20311;-73
2022/05/02 16:55:37;;;;;;;7.97;2.60;;;16.30;91.80;;;;;;6308883;22;20002;-73
2022/05/02 16:58:10;;;;;;;7.30;2.65;;;16.30;91.80;;;;;;6308558;22;20010;-73
2022/05/02 17:00:43;;;;;;;8.52;2.70;;;16.30;91.70;;;;;;6335692;22;20091;-73
2022/05/02 17:03:10;;;;;;;8.15;2.67;;;16.30;91.60;;;;;;6309925;22;19999;-74
2022/05/02 17:05:42;;;;;;;10.18;3.10;;;16.20;91.80;;;;;;6308607;22;20030;-74
2022/05/02 17:08:17;;;;;;;7.57;2.60;;;16.30;91.80;;;;;;6308208;22;20052;-73
2022/05/02 17:10:45;;;;;;;9.35;2.75;;;16.20;91.80;;;;;;6335527;22;20235;-73
2022/05/02 21:35:36;;;;;;;8.55;3.20;;;15.70;92.90;;;;;;6332688;22;20100;-70
2022/05/02 21:38:05;;;;;;;5.85;3.10;;;15.80;92.90;;;;;;6335648;22;20412;-70
2022/05/02 21:40:34;;;;;;;7.70;3.00;;;15.90;93.10;;;;;;6337334;22;20015;-70
2022/05/02 21:43:04;;;;;;;8.18;3.55;;;15.90;93.00;;;;;;6335907;22;20077;-70
2022/05/02 21:45:37;;;;;;;8.30;3.80;;;15.90;93.00;;;;;;6336250;22;20014;-69
2022/05/02 21:48:08;;;;;;;13.90;4.93;;;16.00;93.20;;;;;;6337164;22;20006;-69
2022/05/02 21:50:35;;;;;;;;;;;16.10;93.10;;;;;;6337100;22;20429;-70
2022/05/02 21:53:02;;;;;;;7.97;4.38;;;16.10;93.10;;;;;;6309666;22;19918;-70
2022/05/02 21:55:30;;;;;;;13.50;5.40;;;16.10;93.10;;;;;;6337073;22;20035;-70
2022/05/02 21:57:59;;;;;;;;;;;16.10;92.80;;;;;;6310485;22;20487;-70
2022/05/02 22:00:27;;;;;;;16.13;5.75;;;16.20;92.80;;;;;;6334095;22;20245;-70
2022/05/02 22:02:54;;;;;;;14.80;5.35;;;16.20;92.70;;;;;;6336909;22;19999;-70
2022/05/02 22:05:22;;;;;;;10.93;5.20;;;16.20;92.80;;;;;;6310346;22;20007;-69
2022/05/02 22:07:52;;;;;;;15.05;4.40;;;16.20;92.60;;;;;;6309977;22;20333;-70
2022/05/02 22:10:20;;;;;;;12.65;4.50;;;16.20;92.60;;;;;;6335916;22;20096;-70
2022/05/02 22:12:47;;;;;;;8.90;4.60;;;16.30;92.70;;;;;;6337325;22;20014;-70
2022/05/02 22:15:14;;;;;;;11.85;4.95;;;16.30;92.60;;;;;;6283597;22;20007;-69
2022/05/02 22:17:41;;;;;;;9.70;4.30;;;16.30;92.50;;;;;;6310349;22;20030;-70
2022/05/02 22:20:10;;;;;;;10.85;4.47;;;16.40;92.50;;;;;;6309382;22;20019;-70
2022/05/02 22:22:37;;;;;;;10.20;4.43;;;16.40;92.30;;;;;;6310022;22;20003;-70
2022/05/02 22:25:05;;;;;;;8.02;4.07;;;16.40;92.40;;;;;;6309558;22;20015;-69
2022/05/02 22:27:32;;;;;;;9.45;4.15;;;16.40;92.40;;;;;;6308798;22;20288;-70